sensor_id;sensor_type;location;lat;lon;timestamp;pressure;altitude;pressure_sealevel;temperature;humidity
13695;BME280;6919;52.344;14.518;2022-12-16T00:00:14;100271.72;;;-7.12;100.00
13695;BME280;6919;52.344;14.518;2022-12-16T00:02:42;100282.28;;;-7.16;100.00
13695;BME280;6919;52.344;14.518;2022-12-16T00:05:11;100279.31;;;-7.06;100.00
13695;BME280;6919;52.344;14.518;2022-12-16T00:07:39;100277.06;;;-6.92;100.00
13695;BME280;6919;52.344;14.518;2022-12-16T00:10:09;100282.28;;;-6.92;100.00
13695;BME280;6919;52.344;14.518;2022-12-16T00:12:37;100283.56;;;-6.79;100.00
13695;BME280;6919;52.344;14.518;2022-12-16T00:15:06;100281.91;;;-6.81;100.00
13695;BME280;6919;52.344;14.518;2022-12-16T00:17:35;100290.22;;;-6.70;100.00
13695;BME280;6919;52.344;14.518;2022-12-16T00:20:05;100292.44;;;-6.60;100.00
13695;BME280;6919;52.344;14.518;2022-12-16T00:22:33;100298.28;;;-6.53;100.00
13695;BME280;6919;52.344;14.518;2022-12-16T00:25:01;100295.50;;;-6.49;100.00
13695;BME280;6919;52.344;14.518;2022-12-16T00:27:31;100291.38;;;-6.54;100.00
13695;BME280;6919;52.344;14.518;2022-12-16T00:30:00;100291.72;;;-6.40;100.00
13695;BME280;6919;52.344;14.518;2022-12-16T00:32:28;100294.19;;;-6.37;100.00
13695;BME280;6919;52.344;14.518;2022-12-16T00:34:56;100287.88;;;-6.32;100.00
13695;BME280;6919;52.344;14.518;2022-12-16T00:37:25;100294.78;;;-6.29;100.00
13695;BME280;6919;52.344;14.518;2022-12-16T00:39:54;100284.03;;;-6.22;100.00
13695;BME280;6919;52.344;14.518;2022-12-16T00:42:22;100291.69;;;-6.17;100.00
13695;BME280;6919;52.344;14.518;2022-12-16T00:44:51;100289.88;;;-6.15;100.00
13695;BME280;6919;52.344;14.518;2022-12-16T00:47:20;100284.63;;;-6.13;100.00
13695;BME280;6919;52.344;14.518;2022-12-16T00:49:49;100282.13;;;-6.16;100.00
13695;BME280;6919;52.344;14.518;2022-12-16T00:52:17;100291.53;;;-6.12;100.00
13695;BME280;6919;52.344;14.518;2022-12-16T00:54:45;100290.66;;;-6.13;100.00
13695;BME280;6919;52.344;14.518;2022-12-16T00:57:13;100284.94;;;-6.22;100.00
13695;BME280;6919;52.344;14.518;2022-12-16T00:59:41;100283.06;;;-6.19;100.00
13695;BME280;6919;52.344;14.518;2022-12-16T01:02:11;100283.31;;;-6.25;100.00
13695;BME280;6919;52.344;14.518;2022-12-16T01:04:39;100282.22;;;-6.19;100.00
13695;BME280;6919;52.344;14.518;2022-12-16T01:07:08;100288.75;;;-6.31;100.00
13695;BME280;6919;52.344;14.518;2022-12-16T01:09:36;100279.56;;;-6.18;100.00
13695;BME280;6919;52.344;14.518;2022-12-16T01:12:05;100283.69;;;-6.12;100.00
13695;BME280;6919;52.344;14.518;2022-12-16T01:14:33;100278.69;;;-6.18;100.00
13695;BME280;6919;52.344;14.518;2022-12-16T01:17:02;100272.88;;;-6.25;100.00
13695;BME280;6919;52.344;14.518;2022-12-16T01:19:31;100273.00;;;-6.28;100.00
13695;BME280;6919;52.344;14.518;2022-12-16T01:22:00;100278.19;;;-6.28;100.00
13695;BME280;6919;52.344;14.518;2022-12-16T01:24:28;100283.31;;;-6.25;100.00
13695;BME280;6919;52.344;14.518;2022-12-16T01:26:56;100278.19;;;-6.28;100.00
13695;BME280;6919;52.344;14.518;2022-12-16T01:29:24;100289.81;;;-6.37;100.00
13695;BME280;6919;52.344;14.518;2022-12-16T01:31:52;100283.66;;;-6.57;100.00
13695;BME280;6919;52.344;14.518;2022-12-16T01:34:21;100284.56;;;-6.83;100.00
13695;BME280;6919;52.344;14.518;2022-12-16T01:36:51;100292.03;;;-6.97;100.00
13695;BME280;6919;52.344;14.518;2022-12-16T01:39:21;100292.13;;;-7.00;100.00
13695;BME280;6919;52.344;14.518;2022-12-16T01:41:51;100300.25;;;-6.84;100.00
13695;BME280;6919;52.344;14.518;2022-12-16T01:44:22;100294.69;;;-6.74;100.00
13695;BME280;6919;52.344;14.518;2022-12-16T01:46:56;100301.59;;;-6.73;100.00
13695;BME280;6919;52.344;14.518;2022-12-16T01:49:33;100291.47;;;-6.82;100.00
13695;BME280;6919;52.344;14.518;2022-12-16T01:52:09;100293.72;;;-6.71;100.00
13695;BME280;6919;52.344;14.518;2022-12-16T01:54:44;100292.75;;;-6.69;100.00
13695;BME280;6919;52.344;14.518;2022-12-16T01:57:20;100286.56;;;-6.66;100.00
13695;BME280;6919;52.344;14.518;2022-12-16T01:59:52;100290.09;;;-6.67;100.00
13695;BME280;6919;52.344;14.518;2022-12-16T02:02:23;100285.50;;;-6.84;100.00
13695;BME280;6919;52.344;14.518;2022-12-16T02:04:51;100280.38;;;-6.87;100.00
13695;BME280;6919;52.344;14.518;2022-12-16T02:07:40;100266.28;;;-7.06;100.00
13695;BME280;6919;52.344;14.518;2022-12-16T02:10:08;100273.22;;;-7.05;100.00
13695;BME280;6919;52.344;14.518;2022-12-16T02:12:44;100282.72;;;-7.04;100.00
13695;BME280;6919;52.344;14.518;2022-12-16T02:15:31;100275.41;;;-7.17;100.00
13695;BME280;6919;52.344;14.518;2022-12-16T02:18:12;100268.84;;;-7.29;100.00
13695;BME280;6919;52.344;14.518;2022-12-16T02:21:28;100272.56;;;-7.36;100.00
13695;BME280;6919;52.344;14.518;2022-12-16T02:24:34;100270.19;;;-7.43;100.00
13695;BME280;6919;52.344;14.518;2022-12-16T02:27:46;100258.66;;;-7.36;100.00
13695;BME280;6919;52.344;14.518;2022-12-16T02:30:45;100259.00;;;-7.45;100.00
13695;BME280;6919;52.344;14.518;2022-12-16T02:33:34;100258.28;;;-7.50;100.00
13695;BME280;6919;52.344;14.518;2022-12-16T02:36:16;100253.34;;;-7.58;100.00
13695;BME280;6919;52.344;14.518;2022-12-16T02:38:56;100256.13;;;-7.64;100.00
13695;BME280;6919;52.344;14.518;2022-12-16T02:41:36;100256.03;;;-7.61;100.00
13695;BME280;6919;52.344;14.518;2022-12-16T02:44:10;100250.59;;;-7.53;100.00
13695;BME280;6919;52.344;14.518;2022-12-16T02:46:50;100248.09;;;-7.32;100.00
13695;BME280;6919;52.344;14.518;2022-12-16T02:49:48;100255.28;;;-7.38;100.00
13695;BME280;6919;52.344;14.518;2022-12-16T02:52:20;100240.09;;;-7.52;100.00
13695;BME280;6919;52.344;14.518;2022-12-16T02:54:53;100242.06;;;-7.58;100.00
13695;BME280;6919;52.344;14.518;2022-12-16T02:57:48;100247.06;;;-7.78;100.00
13695;BME280;6919;52.344;14.518;2022-12-16T03:00:20;100239.44;;;-7.83;100.00
13695;BME280;6919;52.344;14.518;2022-12-16T03:02:58;100248.25;;;-7.87;100.00
13695;BME280;6919;52.344;14.518;2022-12-16T03:05:32;100247.53;;;-7.92;100.00
13695;BME280;6919;52.344;14.518;2022-12-16T03:08:08;100243.53;;;-8.03;100.00
13695;BME280;6919;52.344;14.518;2022-12-16T03:10:45;100248.16;;;-8.11;100.00
13695;BME280;6919;52.344;14.518;2022-12-16T03:13:17;100242.50;;;-7.98;100.00
13695;BME280;6919;52.344;14.518;2022-12-16T03:15:49;100244.41;;;-8.03;100.00
13695;BME280;6919;52.344;14.518;2022-12-16T03:18:22;100245.50;;;-8.10;100.00
13695;BME280;6919;52.344;14.518;2022-12-16T03:20:54;100237.66;;;-8.08;100.00
13695;BME280;6919;52.344;14.518;2022-12-16T03:23:30;100236.84;;;-8.10;100.00
13695;BME280;6919;52.344;14.518;2022-12-16T03:26:05;100246.50;;;-8.14;100.00
13695;BME280;6919;52.344;14.518;2022-12-16T03:28:46;100243.06;;;-8.16;100.00
13695;BME280;6919;52.344;14.518;2022-12-16T03:31:29;100240.47;;;-8.16;100.00
13695;BME280;6919;52.344;14.518;2022-12-16T03:34:09;100232.53;;;-8.11;100.00
13695;BME280;6919;52.344;14.518;2022-12-16T03:36:42;100239.66;;;-8.16;100.00
13695;BME280;6919;52.344;14.518;2022-12-16T03:39:15;100236.06;;;-8.12;100.00
13695;BME280;6919;52.344;14.518;2022-12-16T03:41:48;100229.00;;;-8.09;100.00
13695;BME280;6919;52.344;14.518;2022-12-16T03:44:20;100237.69;;;-8.10;100.00
13695;BME280;6919;52.344;14.518;2022-12-16T03:46:49;100230.41;;;-7.99;100.00
13695;BME280;6919;52.344;14.518;2022-12-16T03:49:20;100240.22;;;-8.07;100.00
13695;BME280;6919;52.344;14.518;2022-12-16T03:51:49;100237.69;;;-8.10;100.00
13695;BME280;6919;52.344;14.518;2022-12-16T03:54:18;100242.94;;;-8.11;100.00
13695;BME280;6919;52.344;14.518;2022-12-16T03:56:46;100234.19;;;-8.09;100.00
13695;BME280;6919;52.344;14.518;2022-12-16T03:59:15;100236.13;;;-8.15;100.00
13695;BME280;6919;52.344;14.518;2022-12-16T04:01:43;100234.34;;;-8.13;100.00
13695;BME280;6919;52.344;14.518;2022-12-16T04:04:11;100228.84;;;-8.04;100.00
13695;BME280;6919;52.344;14.518;2022-12-16T04:06:41;100238.38;;;-8.05;100.00
13695;BME280;6919;52.344;14.518;2022-12-16T04:09:09;100236.69;;;-8.06;100.00
13695;BME280;6919;52.344;14.518;2022-12-16T04:11:38;100236.75;;;-7.80;100.00
13695;BME280;6919;52.344;14.518;2022-12-16T04:14:23;100232.50;;;-8.10;100.00
13695;BME280;6919;52.344;14.518;2022-12-16T04:17:11;100236.19;;;-8.17;100.00
13695;BME280;6919;52.344;14.518;2022-12-16T04:19:57;100235.69;;;-8.28;100.00
13695;BME280;6919;52.344;14.518;2022-12-16T04:22:45;100229.63;;;-8.28;100.00
13695;BME280;6919;52.344;14.518;2022-12-16T04:25:33;100244.50;;;-8.32;100.00
13695;BME280;6919;52.344;14.518;2022-12-16T04:28:03;100239.22;;;-8.29;100.00
13695;BME280;6919;52.344;14.518;2022-12-16T04:30:32;100236.56;;;-8.27;100.00
13695;BME280;6919;52.344;14.518;2022-12-16T04:33:04;100226.09;;;-8.26;100.00
13695;BME280;6919;52.344;14.518;2022-12-16T04:35:51;100226.00;;;-8.23;100.00
13695;BME280;6919;52.344;14.518;2022-12-16T04:38:38;100231.28;;;-8.26;100.00
13695;BME280;6919;52.344;14.518;2022-12-16T04:41:24;100232.97;;;-8.23;100.00
13695;BME280;6919;52.344;14.518;2022-12-16T04:44:10;100229.69;;;-8.30;100.00
13695;BME280;6919;52.344;14.518;2022-12-16T04:46:56;100223.34;;;-8.21;100.00
13695;BME280;6919;52.344;14.518;2022-12-16T04:49:41;100234.09;;;-8.06;100.00
13695;BME280;6919;52.344;14.518;2022-12-16T04:52:27;100233.28;;;-8.06;100.00
13695;BME280;6919;52.344;14.518;2022-12-16T04:55:15;100224.59;;;-8.07;100.00
13695;BME280;6919;52.344;14.518;2022-12-16T04:58:01;100239.34;;;-8.07;100.00
13695;BME280;6919;52.344;14.518;2022-12-16T05:00:48;100232.81;;;-7.93;100.00
13695;BME280;6919;52.344;14.518;2022-12-16T05:03:34;100229.81;;;-8.07;100.00
13695;BME280;6919;52.344;14.518;2022-12-16T05:06:21;100232.88;;;-7.94;100.00
13695;BME280;6919;52.344;14.518;2022-12-16T05:09:07;100233.91;;;-7.74;100.00
13695;BME280;6919;52.344;14.518;2022-12-16T05:11:54;100232.63;;;-7.61;100.00
13695;BME280;6919;52.344;14.518;2022-12-16T05:14:40;100237.09;;;-7.66;100.00
13695;BME280;6919;52.344;14.518;2022-12-16T05:17:26;100242.53;;;-7.72;100.00
13695;BME280;6919;52.344;14.518;2022-12-16T05:20:11;100247.94;;;-7.78;100.00
13695;BME280;6919;52.344;14.518;2022-12-16T05:22:57;100252.31;;;-8.06;100.00
13695;BME280;6919;52.344;14.518;2022-12-16T05:25:43;100255.94;;;-8.11;100.00
13695;BME280;6919;52.344;14.518;2022-12-16T05:28:30;100255.59;;;-7.99;100.00
13695;BME280;6919;52.344;14.518;2022-12-16T05:31:16;100266.16;;;-8.05;100.00
13695;BME280;6919;52.344;14.518;2022-12-16T05:34:02;100268.25;;;-8.16;100.00
13695;BME280;6919;52.344;14.518;2022-12-16T05:36:48;100265.38;;;-8.09;100.00
13695;BME280;6919;52.344;14.518;2022-12-16T05:39:33;100266.91;;;-8.02;100.00
13695;BME280;6919;52.344;14.518;2022-12-16T05:42:19;100268.09;;;-8.12;100.00
13695;BME280;6919;52.344;14.518;2022-12-16T05:45:07;100277.34;;;-8.03;100.00
13695;BME280;6919;52.344;14.518;2022-12-16T05:47:53;100281.84;;;-7.81;100.00
13695;BME280;6919;52.344;14.518;2022-12-16T05:50:39;100288.22;;;-7.91;100.00
13695;BME280;6919;52.344;14.518;2022-12-16T05:53:25;100298.13;;;-8.02;100.00
13695;BME280;6919;52.344;14.518;2022-12-16T05:56:10;100302.22;;;-7.95;100.00
13695;BME280;6919;52.344;14.518;2022-12-16T05:58:56;100297.13;;;-7.98;100.00
13695;BME280;6919;52.344;14.518;2022-12-16T06:01:43;100304.47;;;-7.83;100.00
13695;BME280;6919;52.344;14.518;2022-12-16T06:04:29;100315.16;;;-7.92;100.00
13695;BME280;6919;52.344;14.518;2022-12-16T06:07:17;100313.38;;;-7.90;100.00
13695;BME280;6919;52.344;14.518;2022-12-16T06:10:03;100326.28;;;-7.87;100.00
13695;BME280;6919;52.344;14.518;2022-12-16T06:12:49;100338.34;;;-7.84;100.00
13695;BME280;6919;52.344;14.518;2022-12-16T06:15:34;100339.50;;;-7.94;100.00
13695;BME280;6919;52.344;14.518;2022-12-16T06:18:21;100342.13;;;-7.94;100.00
13695;BME280;6919;52.344;14.518;2022-12-16T06:21:07;100349.63;;;-8.14;100.00
13695;BME280;6919;52.344;14.518;2022-12-16T06:23:52;100358.84;;;-8.03;100.00
13695;BME280;6919;52.344;14.518;2022-12-16T06:26:38;100368.13;;;-7.94;100.00
13695;BME280;6919;52.344;14.518;2022-12-16T06:29:35;100375.88;;;-7.93;100.00
13695;BME280;6919;52.344;14.518;2022-12-16T06:32:20;100382.03;;;-7.95;100.00
13695;BME280;6919;52.344;14.518;2022-12-16T06:35:08;100384.75;;;-8.00;100.00
13695;BME280;6919;52.344;14.518;2022-12-16T06:37:54;100382.34;;;-8.06;100.00
13695;BME280;6919;52.344;14.518;2022-12-16T06:40:39;100388.81;;;-7.90;100.00
13695;BME280;6919;52.344;14.518;2022-12-16T06:43:25;100383.69;;;-7.93;100.00
13695;BME280;6919;52.344;14.518;2022-12-16T06:46:10;100383.59;;;-7.90;100.00
13695;BME280;6919;52.344;14.518;2022-12-16T06:48:56;100380.56;;;-7.76;100.00
13695;BME280;6919;52.344;14.518;2022-12-16T06:51:43;100380.41;;;-7.70;100.00
13695;BME280;6919;52.344;14.518;2022-12-16T06:54:29;100382.97;;;-7.69;100.00
13695;BME280;6919;52.344;14.518;2022-12-16T06:57:14;100380.25;;;-7.66;100.00
13695;BME280;6919;52.344;14.518;2022-12-16T07:00:00;100380.25;;;-7.66;100.00
13695;BME280;6919;52.344;14.518;2022-12-16T07:02:46;100383.84;;;-7.70;100.00
13695;BME280;6919;52.344;14.518;2022-12-16T07:05:32;100372.38;;;-7.64;100.00
13695;BME280;6919;52.344;14.518;2022-12-16T07:08:19;100378.84;;;-7.76;100.00
13695;BME280;6919;52.344;14.518;2022-12-16T07:11:05;100372.03;;;-7.80;100.00
13695;BME280;6919;52.344;14.518;2022-12-16T07:13:50;100372.69;;;-7.73;100.00
13695;BME280;6919;52.344;14.518;2022-12-16T07:16:36;100385.41;;;-7.64;100.00
13695;BME280;6919;52.344;14.518;2022-12-16T07:19:22;100389.81;;;-7.66;100.00
13695;BME280;6919;52.344;14.518;2022-12-16T07:22:07;100393.13;;;-7.61;100.00
13695;BME280;6919;52.344;14.518;2022-12-16T07:24:54;100404.44;;;-7.62;100.00
13695;BME280;6919;52.344;14.518;2022-12-16T07:27:45;100401.78;;;-7.61;100.00
13695;BME280;6919;52.344;14.518;2022-12-16T07:30:30;100402.78;;;-7.65;100.00
13695;BME280;6919;52.344;14.518;2022-12-16T07:33:21;100413.97;;;-7.63;100.00
13695;BME280;6919;52.344;14.518;2022-12-16T07:36:07;100421.47;;;-7.52;100.00
13695;BME280;6919;52.344;14.518;2022-12-16T07:38:53;100430.84;;;-7.47;100.00
13695;BME280;6919;52.344;14.518;2022-12-16T07:41:55;100439.75;;;-7.54;100.00
13695;BME280;6919;52.344;14.518;2022-12-16T07:44:43;100441.88;;;-7.39;100.00
13695;BME280;6919;52.344;14.518;2022-12-16T07:47:29;100454.63;;;-7.30;100.00
13695;BME280;6919;52.344;14.518;2022-12-16T07:50:15;100450.94;;;-7.23;100.00
13695;BME280;6919;52.344;14.518;2022-12-16T07:53:12;100455.06;;;-7.16;100.00
13695;BME280;6919;52.344;14.518;2022-12-16T07:55:58;100452.00;;;-7.02;100.00
13695;BME280;6919;52.344;14.518;2022-12-16T07:58:44;100465.50;;;-6.90;100.00
13695;BME280;6919;52.344;14.518;2022-12-16T08:01:30;100461.09;;;-6.88;100.00
13695;BME280;6919;52.344;14.518;2022-12-16T08:04:16;100468.38;;;-6.99;100.00
13695;BME280;6919;52.344;14.518;2022-12-16T08:07:02;100470.63;;;-7.14;100.00
13695;BME280;6919;52.344;14.518;2022-12-16T08:10:03;100478.97;;;-7.03;100.00
13695;BME280;6919;52.344;14.518;2022-12-16T08:12:49;100478.69;;;-7.22;100.00
13695;BME280;6919;52.344;14.518;2022-12-16T08:15:36;100478.75;;;-6.97;100.00
13695;BME280;6919;52.344;14.518;2022-12-16T08:18:34;100481.25;;;-6.94;100.00
13695;BME280;6919;52.344;14.518;2022-12-16T08:21:20;100482.16;;;-6.95;100.00
13695;BME280;6919;52.344;14.518;2022-12-16T08:24:06;100488.81;;;-6.85;100.00
13695;BME280;6919;52.344;14.518;2022-12-16T08:26:51;100484.97;;;-6.74;100.00
13695;BME280;6919;52.344;14.518;2022-12-16T08:29:37;100490.00;;;-6.69;100.00
13695;BME280;6919;52.344;14.518;2022-12-16T08:32:24;100498.81;;;-6.73;100.00
13695;BME280;6919;52.344;14.518;2022-12-16T08:35:27;100502.53;;;-7.08;100.00
13695;BME280;6919;52.344;14.518;2022-12-16T08:38:28;100497.72;;;-6.92;100.00
13695;BME280;6919;52.344;14.518;2022-12-16T08:41:14;100495.34;;;-7.00;100.00
13695;BME280;6919;52.344;14.518;2022-12-16T08:43:59;100500.19;;;-6.88;100.00
13695;BME280;6919;52.344;14.518;2022-12-16T08:46:45;100501.31;;;-6.96;100.00
13695;BME280;6919;52.344;14.518;2022-12-16T08:49:32;100498.81;;;-6.99;100.00
13695;BME280;6919;52.344;14.518;2022-12-16T08:52:23;100495.44;;;-7.03;100.00
13695;BME280;6919;52.344;14.518;2022-12-16T08:55:09;100502.41;;;-7.03;100.00
13695;BME280;6919;52.344;14.518;2022-12-16T08:57:56;100498.28;;;-7.10;100.00
13695;BME280;6919;52.344;14.518;2022-12-16T09:00:41;100497.44;;;-7.11;100.00
13695;BME280;6919;52.344;14.518;2022-12-16T09:03:33;100502.53;;;-6.80;100.00
13695;BME280;6919;52.344;14.518;2022-12-16T09:06:21;100501.38;;;-6.72;100.00
13695;BME280;6919;52.344;14.518;2022-12-16T09:09:07;100499.50;;;-6.67;100.00
13695;BME280;6919;52.344;14.518;2022-12-16T09:11:53;100510.19;;;-6.76;100.00
13695;BME280;6919;52.344;14.518;2022-12-16T09:14:39;100509.91;;;-6.94;100.00
13695;BME280;6919;52.344;14.518;2022-12-16T09:17:25;100508.06;;;-6.63;100.00
13695;BME280;6919;52.344;14.518;2022-12-16T09:20:10;100506.34;;;-6.38;100.00
13695;BME280;6919;52.344;14.518;2022-12-16T09:23:01;100508.69;;;-6.31;100.00
13695;BME280;6919;52.344;14.518;2022-12-16T09:26:01;100509.91;;;-6.41;100.00
13695;BME280;6919;52.344;14.518;2022-12-16T09:28:47;100514.72;;;-6.55;100.00
13695;BME280;6919;52.344;14.518;2022-12-16T09:31:33;100508.69;;;-6.31;100.00
13695;BME280;6919;52.344;14.518;2022-12-16T09:34:18;100514.97;;;-6.36;100.00
13695;BME280;6919;52.344;14.518;2022-12-16T09:37:15;100519.63;;;-6.19;100.00
13695;BME280;6919;52.344;14.518;2022-12-16T09:40:04;100516.19;;;-6.22;100.00
13695;BME280;6919;52.344;14.518;2022-12-16T09:42:58;100518.75;;;-6.20;100.00
13695;BME280;6919;52.344;14.518;2022-12-16T09:45:59;100504.69;;;-6.16;100.00
13695;BME280;6919;52.344;14.518;2022-12-16T09:48:59;100514.34;;;-6.18;100.00
13695;BME280;6919;52.344;14.518;2022-12-16T09:51:50;100508.06;;;-6.12;100.00
13695;BME280;6919;52.344;14.518;2022-12-16T09:54:45;100505.31;;;-6.08;100.00
13695;BME280;6919;52.344;14.518;2022-12-16T09:57:35;100504.66;;;-6.14;100.00
13695;BME280;6919;52.344;14.518;2022-12-16T10:00:24;100507.97;;;-6.09;100.00
13695;BME280;6919;52.344;14.518;2022-12-16T10:03:19;100506.13;;;-6.07;100.00
13695;BME280;6919;52.344;14.518;2022-12-16T10:06:19;100510.50;;;-5.83;100.00
13695;BME280;6919;52.344;14.518;2022-12-16T10:09:21;100499.16;;;-5.82;100.00
13695;BME280;6919;52.344;14.518;2022-12-16T10:12:22;100503.16;;;-5.74;100.00
13695;BME280;6919;52.344;14.518;2022-12-16T10:15:27;100505.72;;;-5.49;100.00
13695;BME280;6919;52.344;14.518;2022-12-16T10:18:43;100507.22;;;-5.42;100.00
13695;BME280;6919;52.344;14.518;2022-12-16T10:21:38;100504.19;;;-5.32;100.00
13695;BME280;6919;52.344;14.518;2022-12-16T10:24:40;100502.03;;;-5.44;100.00
13695;BME280;6919;52.344;14.518;2022-12-16T10:27:39;100499.47;;;-5.45;100.00
13695;BME280;6919;52.344;14.518;2022-12-16T10:30:31;100501.69;;;-5.35;100.00
13695;BME280;6919;52.344;14.518;2022-12-16T10:33:21;100504.22;;;-5.33;100.00
13695;BME280;6919;52.344;14.518;2022-12-16T10:36:13;100493.00;;;-5.58;100.00
13695;BME280;6919;52.344;14.518;2022-12-16T10:39:28;100504.69;;;-5.22;100.00
13695;BME280;6919;52.344;14.518;2022-12-16T10:42:21;100498.63;;;-5.01;100.00
13695;BME280;6919;52.344;14.518;2022-12-16T10:45:18;100510.72;;;-4.99;100.00
13695;BME280;6919;52.344;14.518;2022-12-16T10:48:09;100506.44;;;-4.78;100.00
13695;BME280;6919;52.344;14.518;2022-12-16T10:50:58;100508.72;;;-4.92;100.00
13695;BME280;6919;52.344;14.518;2022-12-16T10:53:45;100510.75;;;-4.77;100.00
13695;BME280;6919;52.344;14.518;2022-12-16T10:56:49;100517.59;;;-4.75;100.00
13695;BME280;6919;52.344;14.518;2022-12-16T10:59:39;100523.16;;;-4.82;100.00
13695;BME280;6919;52.344;14.518;2022-12-16T11:02:28;100518.69;;;-4.80;100.00
13695;BME280;6919;52.344;14.518;2022-12-16T11:05:33;100516.09;;;-4.80;100.00
13695;BME280;6919;52.344;14.518;2022-12-16T11:08:31;100517.66;;;-4.76;100.00
13695;BME280;6919;52.344;14.518;2022-12-16T11:11:23;100516.81;;;-4.77;100.00
13695;BME280;6919;52.344;14.518;2022-12-16T11:14:17;100519.81;;;-4.64;100.00
13695;BME280;6919;52.344;14.518;2022-12-16T11:17:17;100515.16;;;-4.79;100.00
13695;BME280;6919;52.344;14.518;2022-12-16T11:20:16;100509.34;;;-4.64;100.00
13695;BME280;6919;52.344;14.518;2022-12-16T11:23:17;100515.16;;;-4.58;100.00
13695;BME280;6919;52.344;14.518;2022-12-16T11:26:10;100513.13;;;-4.51;100.00
13695;BME280;6919;52.344;14.518;2022-12-16T11:29:08;100524.53;;;-4.52;100.00
13695;BME280;6919;52.344;14.518;2022-12-16T11:32:00;100513.66;;;-4.63;100.00
13695;BME280;6919;52.344;14.518;2022-12-16T11:34:53;100522.59;;;-4.69;100.00
13695;BME280;6919;52.344;14.518;2022-12-16T11:37:42;100520.41;;;-4.58;100.00
13695;BME280;6919;52.344;14.518;2022-12-16T11:40:31;100531.34;;;-4.48;100.00
13695;BME280;6919;52.344;14.518;2022-12-16T11:43:20;100531.56;;;-4.33;100.00
13695;BME280;6919;52.344;14.518;2022-12-16T11:46:23;100530.97;;;-4.39;100.00
13695;BME280;6919;52.344;14.518;2022-12-16T11:49:25;100541.38;;;-4.18;100.00
13695;BME280;6919;52.344;14.518;2022-12-16T11:52:27;100547.47;;;-4.17;100.00
13695;BME280;6919;52.344;14.518;2022-12-16T11:55:18;100546.09;;;-4.26;100.00
13695;BME280;6919;52.344;14.518;2022-12-16T11:58:35;100544.06;;;-4.19;100.00
13695;BME280;6919;52.344;14.518;2022-12-16T12:01:30;100549.66;;;-4.07;100.00
13695;BME280;6919;52.344;14.518;2022-12-16T12:04:28;100570.94;;;-3.94;100.00
13695;BME280;6919;52.344;14.518;2022-12-16T12:07:24;100564.13;;;-3.98;100.00
13695;BME280;6919;52.344;14.518;2022-12-16T12:10:49;100560.69;;;-4.20;100.00
13695;BME280;6919;52.344;14.518;2022-12-16T12:14:03;100554.97;;;-4.08;100.00
13695;BME280;6919;52.344;14.518;2022-12-16T12:17:07;100560.38;;;-3.93;100.00
13695;BME280;6919;52.344;14.518;2022-12-16T12:20:24;100566.22;;;-3.66;100.00
13695;BME280;6919;52.344;14.518;2022-12-16T12:23:29;100568.97;;;-3.89;100.00
13695;BME280;6919;52.344;14.518;2022-12-16T12:26:28;100568.66;;;-3.82;100.00
13695;BME280;6919;52.344;14.518;2022-12-16T12:29:34;100564.75;;;-4.13;100.00
13695;BME280;6919;52.344;14.518;2022-12-16T12:32:34;100578.00;;;-3.96;100.00
13695;BME280;6919;52.344;14.518;2022-12-16T12:35:55;100579.00;;;-3.99;100.00
13695;BME280;6919;52.344;14.518;2022-12-16T12:38:56;100581.09;;;-3.87;100.00
13695;BME280;6919;52.344;14.518;2022-12-16T12:42:01;100580.09;;;-3.84;100.00
13695;BME280;6919;52.344;14.518;2022-12-16T12:45:12;100584.69;;;-3.89;100.00
13695;BME280;6919;52.344;14.518;2022-12-16T12:48:09;100587.38;;;-3.91;100.00
13695;BME280;6919;52.344;14.518;2022-12-16T12:51:07;100567.78;;;-4.02;100.00
13695;BME280;6919;52.344;14.518;2022-12-16T12:54:05;100579.31;;;-4.06;100.00
13695;BME280;6919;52.344;14.518;2022-12-16T12:57:01;100591.88;;;-4.14;100.00
13695;BME280;6919;52.344;14.518;2022-12-16T12:59:57;100588.94;;;-4.07;100.00
13695;BME280;6919;52.344;14.518;2022-12-16T13:02:50;100589.47;;;-3.99;100.00
13695;BME280;6919;52.344;14.518;2022-12-16T13:05:40;100596.16;;;-3.92;100.00
13695;BME280;6919;52.344;14.518;2022-12-16T13:08:57;100597.41;;;-3.80;100.00
13695;BME280;6919;52.344;14.518;2022-12-16T13:12:35;100611.88;;;-3.92;100.00
13695;BME280;6919;52.344;14.518;2022-12-16T13:15:35;100609.06;;;-3.87;100.00
13695;BME280;6919;52.344;14.518;2022-12-16T13:18:26;100618.25;;;-3.99;100.00
13695;BME280;6919;52.344;14.518;2022-12-16T13:21:43;100624.16;;;-3.94;100.00
13695;BME280;6919;52.344;14.518;2022-12-16T13:24:49;100626.66;;;-3.91;100.00
13695;BME280;6919;52.344;14.518;2022-12-16T13:27:51;100616.63;;;-3.81;100.00
13695;BME280;6919;52.344;14.518;2022-12-16T13:30:59;100618.09;;;-3.74;100.00
13695;BME280;6919;52.344;14.518;2022-12-16T13:33:53;100628.94;;;-3.63;100.00
13695;BME280;6919;52.344;14.518;2022-12-16T13:36:41;100619.88;;;-3.75;100.00
13695;BME280;6919;52.344;14.518;2022-12-16T13:39:30;100630.84;;;-3.87;100.00
13695;BME280;6919;52.344;14.518;2022-12-16T13:42:53;100629.47;;;-3.75;100.00
13695;BME280;6919;52.344;14.518;2022-12-16T13:45:42;100631.47;;;-3.80;100.00
13695;BME280;6919;52.344;14.518;2022-12-16T13:48:36;100633.91;;;-3.77;100.00
13695;BME280;6919;52.344;14.518;2022-12-16T13:52:13;100631.31;;;-3.77;100.00
13695;BME280;6919;52.344;14.518;2022-12-16T13:55:13;100635.91;;;-3.62;100.00
13695;BME280;6919;52.344;14.518;2022-12-16T13:58:20;100632.69;;;-3.89;100.00
13695;BME280;6919;52.344;14.518;2022-12-16T14:01:15;100648.69;;;-3.75;100.00
13695;BME280;6919;52.344;14.518;2022-12-16T14:04:02;100653.13;;;-3.77;100.00
13695;BME280;6919;52.344;14.518;2022-12-16T14:06:57;100655.09;;;-3.62;100.00
13695;BME280;6919;52.344;14.518;2022-12-16T14:09:50;100656.81;;;-3.61;100.00
13695;BME280;6919;52.344;14.518;2022-12-16T14:13:00;100650.84;;;-3.64;100.00
13695;BME280;6919;52.344;14.518;2022-12-16T14:15:59;100661.59;;;-3.50;100.00
13695;BME280;6919;52.344;14.518;2022-12-16T14:19:06;100664.28;;;-3.52;100.00